createdAt,value
2022-08-05T00:01:35.511Z,73.63
2022-08-05T00:04:05.209Z,74.02
2022-08-05T00:06:36.052Z,73.11
2022-08-05T00:09:04.051Z,74.21
2022-08-05T00:11:35.132Z,73.18
2022-08-05T00:14:16.955Z,72.95
2022-08-05T00:16:53.323Z,73.90
2022-08-05T00:19:22.715Z,74.03
2022-08-05T00:21:51.501Z,74.88
2022-08-05T00:24:19.230Z,74.95
2022-08-05T00:26:52.959Z,73.37
2022-08-05T00:29:22.341Z,74.29
2022-08-05T00:31:54.310Z,74.10
2022-08-05T00:34:55.262Z,72.30
2022-08-05T00:37:22.555Z,72.17
2022-08-05T00:39:58.027Z,70.90
2022-08-05T00:42:37.058Z,73.26
2022-08-05T00:45:08.653Z,72.42
2022-08-05T00:47:56.461Z,72.92
2022-08-05T00:50:25.305Z,72.25
2022-08-05T00:52:53.228Z,73.24
2022-08-05T00:55:20.057Z,72.31
2022-08-05T00:57:58.179Z,72.33
2022-08-05T01:00:27.610Z,74.08
2022-08-05T01:02:54.593Z,75.07
2022-08-05T01:05:21.351Z,72.04
2022-08-05T01:08:29.803Z,74.70
2022-08-05T01:10:42.172Z,74.19
2022-08-05T01:13:57.916Z,74.23
2022-08-05T01:16:26.344Z,73.82
2022-08-05T01:19:00.705Z,74.08
2022-08-05T01:21:38.144Z,73.83
2022-08-05T01:24:23.763Z,76.11
2022-08-05T01:27:24.881Z,74.99
2022-08-05T01:29:55.077Z,73.41
2022-08-05T01:32:27.531Z,74.06
2022-08-05T01:35:01.086Z,72.97
2022-08-05T01:37:44.484Z,72.62
2022-08-05T01:40:12.718Z,72.85
2022-08-05T01:42:41.461Z,72.57
2022-08-05T01:45:09.411Z,72.57
2022-08-05T01:47:38.855Z,71.56
2022-08-05T01:50:15.302Z,72.75
2022-08-05T01:52:43.914Z,72.22
2022-08-05T01:55:12.152Z,72.15
2022-08-05T01:58:09.773Z,72.39
2022-08-05T02:00:30.324Z,72.30
2022-08-05T02:03:24.256Z,72.93
2022-08-05T02:05:59.705Z,72.08
2022-08-05T02:08:31.090Z,73.50
2022-08-05T02:11:13.037Z,71.98
2022-08-05T02:13:54.125Z,72.75
2022-08-05T02:16:28.167Z,74.07
2022-08-05T02:19:11.920Z,72.02
2022-08-05T02:21:49.782Z,71.70
2022-08-05T02:24:19.386Z,72.84
2022-08-05T02:26:54.605Z,71.49
2022-08-05T02:29:24.310Z,71.25
2022-08-05T02:32:11.665Z,70.59
2022-08-05T02:34:46.446Z,70.00
2022-08-05T02:37:22.434Z,70.81
2022-08-05T02:39:51.685Z,71.29
2022-08-05T02:42:25.748Z,70.90
2022-08-05T02:44:52.880Z,71.11
2022-08-05T02:47:20.300Z,71.99
2022-08-05T02:49:47.205Z,69.75
2022-08-05T02:52:30.012Z,70.65
2022-08-05T02:54:57.799Z,73.05
2022-08-05T02:58:11.666Z,74.33
2022-08-05T03:00:13.175Z,76.54
2022-08-05T03:02:41.124Z,75.84
2022-08-05T03:05:11.498Z,75.91
2022-08-05T03:07:59.449Z,77.20
2022-08-05T03:10:26.451Z,76.88
2022-08-05T03:12:54.263Z,75.87
2022-08-05T03:15:23.647Z,74.21
2022-08-05T03:17:53.912Z,75.48
2022-08-05T03:20:21.976Z,77.62
2022-08-05T03:22:50.592Z,74.80
2022-08-05T03:25:33.787Z,74.73
2022-08-05T03:28:08.278Z,74.29
2022-08-05T03:30:35.543Z,73.54
2022-08-05T03:33:03.575Z,74.72
2022-08-05T03:35:33.979Z,73.75
2022-08-05T03:38:07.398Z,73.19
2022-08-05T03:40:34.192Z,71.63
2022-08-05T03:43:59.235Z,71.85
2022-08-05T03:45:55.245Z,72.39
2022-08-05T03:48:25.733Z,72.80
2022-08-05T03:50:53.975Z,73.46
2022-08-05T03:55:52.079Z,77.01
2022-08-05T03:56:34.983Z,76.81
2022-08-05T03:59:05.681Z,77.40
2022-08-05T04:01:33.054Z,78.67
2022-08-05T04:04:09.228Z,77.46
2022-08-05T04:06:37.572Z,76.84
2022-08-05T04:09:06.252Z,76.08
2022-08-05T04:11:47.737Z,79.38
2022-08-05T04:14:19.411Z,76.08
2022-08-05T04:16:58.047Z,75.28
2022-08-05T04:19:24.675Z,75.92
2022-08-05T04:22:09.849Z,77.37
2022-08-05T04:24:44.076Z,79.99
2022-08-05T04:27:14.160Z,79.30
2022-08-05T04:29:41.922Z,81.21
2022-08-05T04:32:09.332Z,79.37
2022-08-05T04:34:42.741Z,80.17
2022-08-05T04:37:10.079Z,80.13
2022-08-05T04:39:37.572Z,78.34
2022-08-05T04:42:06.029Z,79.57
2022-08-05T04:44:33.047Z,78.05
2022-08-05T04:46:59.880Z,79.16
2022-08-05T04:49:38.633Z,77.34
2022-08-05T04:52:22.303Z,80.14
2022-08-05T04:54:49.447Z,78.47
2022-08-05T04:57:16.133Z,79.75
2022-08-05T04:59:42.635Z,79.99
2022-08-05T05:02:37.433Z,78.20
2022-08-05T05:05:02.805Z,78.82
2022-08-05T05:07:32.086Z,79.04
2022-08-05T05:09:59.614Z,78.66
2022-08-05T05:12:29.242Z,78.97
2022-08-05T05:14:55.772Z,79.17
2022-08-05T05:17:24.684Z,79.28
2022-08-05T05:20:09.919Z,77.80
2022-08-05T05:22:40.776Z,80.95
2022-08-05T05:25:17.115Z,79.42
2022-08-05T05:27:53.665Z,78.66
2022-08-05T05:30:29.136Z,79.79
2022-08-05T05:33:00.735Z,79.75
2022-08-05T05:35:37.977Z,77.68
2022-08-05T05:38:12.934Z,78.17
2022-08-05T05:40:47.940Z,78.92
2022-08-05T05:43:22.255Z,79.19
2022-08-05T05:46:03.335Z,78.04
2022-08-05T05:48:31.644Z,77.17
2022-08-05T05:50:58.186Z,77.02
2022-08-05T05:53:24.702Z,78.39
2022-08-05T05:56:01.401Z,78.89
2022-08-05T05:58:32.026Z,78.01
2022-08-05T06:01:02.551Z,77.29
2022-08-05T06:04:01.052Z,76.10
2022-08-05T06:06:28.027Z,78.78
2022-08-05T06:08:58.011Z,76.29
2022-08-05T06:11:24.545Z,75.74
2022-08-05T06:13:54.266Z,76.00
2022-08-05T06:16:30.953Z,75.90
2022-08-05T06:19:05.398Z,76.76
2022-08-05T06:21:36.911Z,76.45
2022-08-05T06:24:12.168Z,76.33
2022-08-05T06:26:51.390Z,75.82
2022-08-05T06:29:25.160Z,75.06
2022-08-05T06:32:06.328Z,75.86
2022-08-05T06:34:53.485Z,75.88
2022-08-05T06:37:52.346Z,77.05
2022-08-05T06:40:10.055Z,74.70
2022-08-05T06:42:37.291Z,73.31
2022-08-05T06:45:08.851Z,75.01
2022-08-05T06:48:44.223Z,72.49
2022-08-05T06:50:23.633Z,73.79
2022-08-05T06:52:58.862Z,76.09
2022-08-05T06:55:36.978Z,75.14
2022-08-05T06:58:19.770Z,75.41
2022-08-05T07:00:50.946Z,72.91
2022-08-05T07:03:17.770Z,71.81
2022-08-05T07:05:44.706Z,71.84
2022-08-05T07:08:13.061Z,71.51
2022-08-05T07:10:53.509Z,70.13
2022-08-05T07:13:57.161Z,68.79
2022-08-05T07:17:56.690Z,69.30
2022-08-05T07:22:17.078Z,67.22
2022-08-05T07:24:43.928Z,67.39
2022-08-05T07:27:19.133Z,65.38
2022-08-05T07:30:27.434Z,65.21
2022-08-05T07:32:38.211Z,66.58
2022-08-05T07:36:02.438Z,64.50
2022-08-05T07:37:55.443Z,64.10
2022-08-05T07:40:32.081Z,63.83
2022-08-05T07:42:59.316Z,64.42
2022-08-05T07:45:57.029Z,65.66
2022-08-05T07:49:02.709Z,64.49
2022-08-05T07:51:08.589Z,65.96
2022-08-05T07:53:51.664Z,66.09
2022-08-05T07:57:02.822Z,66.04
2022-08-05T07:59:04.954Z,65.01
2022-08-05T08:01:35.306Z,64.60
2022-08-05T08:04:08.085Z,64.79
2022-08-05T08:06:34.686Z,64.65
2022-08-05T08:09:01.305Z,66.35
2022-08-05T08:11:47.185Z,67.18
2022-08-05T08:14:20.452Z,69.15
2022-08-05T08:16:51.239Z,70.87
2022-08-05T08:20:22.898Z,71.19
2022-08-05T08:22:09.073Z,69.57
2022-08-05T08:24:51.813Z,70.08
2022-08-05T08:27:18.982Z,69.84
2022-08-05T08:30:05.897Z,68.36
2022-08-05T08:32:34.680Z,68.07
2022-08-05T08:35:07.552Z,68.30
2022-08-05T08:37:40.328Z,68.77
2022-08-05T08:40:12.010Z,68.41
2022-08-05T08:42:52.588Z,67.89
2022-08-05T08:45:26.783Z,68.08
2022-08-05T08:48:07.539Z,68.66
2022-08-05T08:51:07.763Z,68.19
2022-08-05T08:53:37.068Z,65.71
2022-08-05T08:56:06.205Z,66.04
2022-08-05T08:58:37.534Z,66.14
2022-08-05T09:01:16.335Z,66.96
2022-08-05T09:03:46.197Z,65.01
2022-08-05T09:06:17.189Z,64.56
2022-08-05T09:08:46.641Z,63.96
2022-08-05T09:11:14.848Z,63.37
2022-08-05T09:14:09.345Z,63.89
2022-08-05T09:16:29.847Z,63.38
2022-08-05T09:18:56.354Z,63.00
2022-08-05T09:22:30.837Z,63.03
2022-08-05T09:24:15.389Z,62.88
2022-08-05T09:26:43.701Z,62.29
2022-08-05T09:29:10.913Z,60.92
2022-08-05T09:32:40.352Z,60.56
2022-08-05T09:34:55.866Z,62.61
2022-08-05T09:38:12.731Z,60.95
2022-08-05T09:40:39.338Z,61.84
2022-08-05T09:43:41.474Z,59.37
2022-08-05T09:46:27.440Z,59.50
2022-08-05T09:49:06.971Z,58.47
2022-08-05T09:51:42.314Z,58.20
2022-08-05T09:54:10.011Z,57.63
2022-08-05T09:56:38.019Z,58.42
2022-08-05T09:59:11.423Z,58.68
2022-08-05T10:01:45.624Z,57.12
2022-08-05T10:04:16.219Z,57.52
2022-08-05T10:06:59.563Z,60.05
2022-08-05T10:09:29.432Z,60.46
2022-08-05T10:12:30.670Z,62.48
2022-08-05T10:15:13.449Z,62.34
2022-08-05T10:17:47.156Z,62.77
2022-08-05T10:20:23.191Z,62.48
2022-08-05T10:22:51.741Z,64.09
2022-08-05T10:25:19.240Z,62.19
2022-08-05T10:28:16.819Z,62.33
2022-08-05T10:31:20.412Z,62.48
2022-08-05T10:33:25.668Z,64.21
2022-08-05T10:35:59.788Z,61.63
2022-08-05T10:38:28.770Z,63.68
2022-08-05T10:41:03.806Z,68.23
2022-08-05T10:43:49.369Z,67.57
2022-08-05T10:46:19.305Z,67.55
2022-08-05T10:48:57.441Z,67.96
2022-08-05T10:51:28.956Z,68.12
2022-08-05T10:53:56.124Z,70.14
2022-08-05T10:56:27.400Z,69.35
2022-08-05T10:58:53.858Z,69.23
2022-08-05T11:01:54.823Z,69.66
2022-08-05T11:04:31.725Z,70.02
2022-08-05T11:07:01.355Z,70.03
2022-08-05T11:09:49.363Z,69.70
2022-08-05T11:12:34.238Z,68.25
2022-08-05T11:15:19.489Z,68.79
2022-08-05T11:17:59.193Z,68.10
2022-08-05T11:20:33.269Z,69.15
2022-08-05T11:23:08.801Z,68.84
2022-08-05T11:26:05.370Z,69.75
2022-08-05T11:28:30.631Z,70.47
2022-08-05T11:31:02.387Z,70.88
2022-08-05T11:33:34.543Z,71.23
2022-08-05T11:36:14.828Z,70.56
2022-08-05T11:38:45.708Z,68.69
2022-08-05T11:41:54.673Z,66.84
2022-08-05T11:44:10.610Z,65.21
2022-08-05T11:47:10.127Z,66.07
2022-08-05T11:49:27.688Z,62.74
2022-08-05T11:51:54.709Z,62.90
2022-08-05T11:54:33.214Z,63.76
2022-08-05T11:57:02.162Z,65.14
2022-08-05T11:59:49.862Z,65.15
2022-08-05T12:02:30.420Z,63.72
2022-08-05T12:05:00.166Z,64.00
2022-08-05T12:08:02.649Z,64.49
2022-08-05T12:10:18.636Z,64.96
2022-08-05T12:12:58.147Z,64.98
2022-08-05T12:15:33.965Z,66.08
2022-08-05T12:18:10.515Z,65.36
2022-08-05T12:20:38.802Z,67.20
2022-08-05T12:23:12.168Z,66.32
2022-08-05T12:25:51.619Z,66.90
2022-08-05T12:28:37.091Z,67.80
2022-08-05T12:31:04.669Z,67.91
2022-08-05T12:33:36.546Z,67.67
2022-08-05T12:36:07.159Z,66.27
2022-08-05T12:38:38.167Z,68.30
2022-08-05T12:41:12.823Z,69.06
2022-08-05T12:43:54.296Z,66.69
2022-08-05T12:46:29.686Z,64.05
2022-08-05T12:49:13.707Z,66.60
2022-08-05T12:52:13.012Z,63.88
2022-08-05T12:54:36.669Z,62.89
2022-08-05T12:57:09.569Z,61.25
2022-08-05T13:01:57.284Z,62.65
2022-08-05T13:02:40.920Z,59.76
2022-08-05T13:05:08.047Z,62.02
2022-08-05T13:07:59.363Z,60.54
2022-08-05T13:10:26.302Z,59.15
2022-08-05T13:12:58.066Z,61.07
2022-08-05T13:15:35.928Z,58.94
2022-08-05T13:18:08.463Z,60.22
2022-08-05T13:20:40.495Z,59.63
2022-08-05T13:58:30.436Z,57.44
2022-08-05T15:21:48.166Z,56.68
2022-08-05T15:28:14.414Z,58.04
2022-08-05T15:34:31.362Z,56.27
2022-08-05T15:37:03.435Z,57.94
2022-08-05T15:40:59.707Z,59.61
2022-08-05T15:42:56.583Z,60.01
2022-08-05T15:45:36.313Z,61.13
2022-08-05T15:48:05.477Z,59.71
2022-08-05T15:50:33.445Z,60.59
2022-08-05T15:53:04.004Z,63.91
2022-08-05T15:56:03.766Z,63.12
2022-08-05T15:58:18.847Z,60.83
2022-08-05T16:00:57.059Z,62.75
2022-08-05T16:03:32.626Z,63.87
2022-08-05T16:06:00.410Z,62.60
2022-08-05T16:08:30.584Z,61.83
2022-08-05T16:10:57.883Z,60.97
2022-08-05T16:13:32.041Z,60.43
2022-08-05T16:16:01.078Z,58.97
2022-08-05T16:18:28.988Z,56.30
2022-08-05T16:20:55.676Z,55.11
2022-08-05T16:23:22.350Z,54.39
2022-08-05T16:25:49.877Z,54.35
2022-08-05T16:28:22.394Z,56.22
2022-08-05T16:30:52.122Z,55.47
2022-08-05T16:33:19.383Z,56.56
2022-08-05T16:35:49.885Z,58.21
2022-08-05T16:38:25.127Z,57.63
2022-08-05T16:41:00.483Z,57.50
2022-08-05T16:43:34.515Z,55.64
2022-08-05T16:46:23.406Z,57.31
2022-08-05T16:48:49.965Z,56.84
2022-08-05T16:51:16.462Z,56.35
2022-08-05T16:54:03.004Z,54.79
2022-08-05T16:56:33.598Z,55.85
2022-08-05T16:59:08.149Z,56.17
2022-08-05T17:01:54.859Z,55.81
2022-08-05T17:04:23.703Z,56.27
2022-08-05T17:06:53.282Z,54.84
2022-08-05T17:09:20.478Z,54.90
2022-08-05T17:11:49.007Z,57.13
2022-08-05T17:14:22.164Z,58.25
2022-08-05T17:17:01.308Z,57.61
2022-08-05T17:19:29.251Z,58.23
2022-08-05T17:21:57.174Z,58.24
2022-08-05T17:24:36.493Z,60.56
2022-08-05T17:27:08.219Z,63.17
2022-08-05T17:29:40.895Z,64.64
2022-08-05T17:32:17.245Z,65.88
2022-08-05T17:34:48.483Z,64.87
2022-08-05T17:37:41.165Z,66.15
2022-08-05T17:40:10.957Z,66.90
2022-08-05T17:42:43.183Z,67.05
2022-08-05T17:45:21.252Z,67.13
2022-08-05T17:47:53.861Z,66.26
2022-08-05T17:50:28.587Z,66.46
2022-08-05T17:52:59.113Z,65.67
2022-08-05T17:55:34.247Z,65.86
2022-08-05T17:58:05.294Z,65.74
2022-08-05T18:00:34.534Z,65.82
2022-08-05T18:03:02.087Z,66.14
2022-08-05T18:05:35.197Z,66.82
2022-08-05T18:08:02.394Z,66.58
2022-08-05T18:10:30.119Z,67.51
2022-08-05T18:13:07.664Z,67.03
2022-08-05T18:15:40.409Z,66.00
2022-08-05T18:18:11.184Z,65.60
2022-08-05T18:20:38.317Z,63.73
2022-08-05T18:23:11.393Z,64.31
2022-08-05T18:25:44.761Z,64.70
2022-08-05T18:28:17.134Z,66.18
2022-08-05T18:33:58.018Z,63.05
2022-08-05T18:40:34.235Z,64.54
2022-08-05T18:42:57.814Z,65.37
2022-08-05T18:45:24.918Z,66.03
2022-08-05T18:48:07.430Z,64.99
2022-08-05T18:50:56.695Z,65.50
2022-08-05T18:53:45.756Z,64.71
2022-08-05T19:03:54.900Z,66.11
2022-08-05T19:10:55.819Z,66.74
2022-08-05T19:24:08.209Z,67.35
2022-08-05T19:26:35.986Z,68.16
2022-08-05T19:29:20.623Z,67.60
2022-08-05T19:31:51.311Z,67.38
2022-08-05T19:34:18.813Z,67.75
2022-08-05T19:36:45.396Z,68.54
2022-08-05T19:39:13.852Z,67.19
2022-08-05T19:42:06.351Z,67.56
2022-08-05T19:44:30.367Z,67.29
2022-08-05T19:46:57.013Z,67.77
2022-08-05T19:49:24.186Z,67.69
2022-08-05T19:52:04.761Z,68.76
2022-08-05T19:54:34.632Z,67.65
2022-08-05T19:57:09.155Z,67.73
2022-08-05T20:00:00.606Z,67.72
2022-08-05T20:02:25.936Z,68.29
2022-08-05T20:04:53.173Z,68.08
2022-08-05T20:07:46.648Z,66.58
2022-08-05T20:10:13.851Z,68.51
2022-08-05T20:12:46.109Z,67.03
2022-08-05T20:15:48.589Z,68.05
2022-08-05T20:18:10.017Z,67.31
2022-08-05T20:20:47.027Z,67.22
2022-08-05T20:23:13.857Z,68.56
2022-08-05T20:25:41.716Z,68.13
2022-08-05T20:28:13.674Z,67.93
2022-08-05T20:30:41.241Z,69.11
2022-08-05T20:33:08.740Z,69.19
2022-08-05T20:35:40.632Z,69.64
2022-08-05T20:38:20.175Z,68.57
2022-08-05T20:40:53.929Z,69.13
2022-08-05T20:43:57.507Z,69.31
2022-08-05T20:46:10.211Z,69.24
2022-08-05T20:48:39.349Z,69.12
2022-08-05T20:51:08.772Z,69.82
2022-08-05T20:53:36.531Z,70.60
2022-08-05T20:56:08.245Z,70.49
2022-08-05T20:58:35.796Z,69.76
2022-08-05T21:01:03.580Z,69.83
2022-08-05T21:03:34.174Z,69.23
2022-08-05T21:06:01.789Z,69.50
2022-08-05T21:08:42.121Z,69.67
2022-08-05T21:11:12.400Z,70.01
2022-08-05T21:13:47.820Z,70.52
2022-08-05T21:16:29.679Z,69.24
2022-08-05T21:19:00.356Z,70.58
2022-08-05T21:21:44.617Z,70.00
2022-08-05T21:24:16.487Z,70.31
2022-08-05T21:26:53.597Z,70.27
2022-08-05T21:29:26.182Z,69.99
2022-08-05T21:31:53.563Z,70.42
2022-08-05T21:34:20.473Z,71.52
2022-08-05T21:36:49.103Z,69.61
2022-08-05T21:39:16.994Z,70.05
2022-08-05T21:42:01.310Z,69.14
2022-08-05T21:44:29.846Z,69.82
2022-08-05T21:46:58.337Z,69.72
2022-08-05T21:49:58.653Z,69.87
2022-08-05T21:52:21.786Z,69.62
2022-08-05T21:54:55.328Z,69.57
2022-08-05T21:57:31.365Z,69.03
2022-08-05T22:00:11.173Z,69.18
2022-08-05T22:02:38.488Z,70.44
2022-08-05T22:05:09.067Z,70.22
2022-08-05T22:07:39.303Z,70.94
2022-08-05T22:10:26.888Z,69.83
2022-08-05T22:12:54.405Z,70.58
2022-08-05T22:15:56.498Z,70.55
2022-08-05T22:18:11.843Z,69.61
2022-08-05T22:20:38.940Z,69.23
2022-08-05T22:23:25.450Z,70.36
2022-08-05T22:26:30.585Z,69.90
2022-08-05T22:28:57.141Z,68.71
2022-08-05T22:31:25.104Z,69.28
2022-08-05T22:34:01.314Z,69.15
2022-08-05T22:36:28.924Z,69.07
2022-08-05T22:38:56.100Z,70.18
2022-08-05T22:41:26.417Z,69.62
2022-08-05T22:44:11.845Z,69.04
2022-08-05T22:46:40.535Z,69.75
2022-08-05T22:49:23.149Z,70.98
2022-08-05T22:52:06.527Z,70.04
2022-08-05T22:54:35.407Z,70.35
2022-08-05T22:57:03.388Z,70.44
2022-08-05T22:59:42.950Z,70.02
2022-08-05T23:02:13.775Z,70.48
2022-08-05T23:04:52.139Z,70.01
2022-08-05T23:07:19.597Z,69.70
2022-08-05T23:09:58.070Z,70.11
2022-08-05T23:12:32.634Z,69.86
2022-08-05T23:15:03.052Z,69.79
2022-08-05T23:17:34.712Z,69.97
2022-08-05T23:20:06.528Z,70.01
2022-08-05T23:22:43.706Z,70.31
2022-08-05T23:25:17.700Z,69.60
2022-08-05T23:28:01.360Z,70.00
2022-08-05T23:30:29.219Z,69.04
2022-08-05T23:32:57.750Z,69.79
2022-08-05T23:35:25.524Z,69.35
2022-08-05T23:37:55.530Z,70.06
2022-08-05T23:40:27.190Z,69.83
2022-08-05T23:42:54.011Z,69.25
2022-08-05T23:45:20.629Z,69.99
2022-08-05T23:47:53.920Z,69.86
2022-08-05T23:50:26.556Z,69.82
2022-08-05T23:52:54.630Z,69.09
2022-08-05T23:55:22.449Z,69.10
2022-08-05T23:57:52.910Z,70.07
